Time;durP1;ratioP1;P1;durP2;ratioP2;P2;SDS_P1;SDS_P2;PMS_P1;PMS_P2;Temp;Humidity;BMP_temperature;BMP_pressure;BME280_temperature;BME280_humidity;BME280_pressure;Samples;Min_cycle;Max_cycle;Signal;HPM_P1;HPM_P2
2023/01/02 00:00:05;;;;;;;;;;;;;;;;;;1882528;28;8028;-64
2023/01/02 00:01:03;;;;;;;;;;;;;;;;;;1883810;28;7078;-63
2023/01/02 00:02:01;;;;;;;;;;;;;;;;;;1883099;28;7152;-64
2023/01/02 00:02:58;;;;;;;;;;;;;;;;;;1882807;28;7149;-62
2023/01/02 00:03:57;;;;;;;;;;;;;;;;;;1883420;28;8047;-61
2023/01/02 00:04:54;;;;;;;;;;;;;;;;;;1886412;28;7113;-64
2023/01/02 00:05:52;;;;;;;;;;;;;;;;;;1884769;28;8029;-63
2023/01/02 00:06:49;;;;;;;;;;;;;;;;;;1884973;28;8024;-64
2023/01/02 00:07:46;;;;;;;;;;;;;;;;;;1883658;28;7010;-63
2023/01/02 00:08:44;;;;;;;;;;;;;;;;;;1883346;28;7034;-63
2023/01/02 00:09:41;;;;;;;;;;;;;;;;;;1883490;28;7029;-62
2023/01/02 00:10:38;;;;;;;;;;;;;;;;;;1885080;28;7105;-62
2023/01/02 00:11:36;;;;;;;;;;;;;;;;;;1884446;28;7010;-62
2023/01/02 00:12:33;;;;;;;;;;;;;;;;;;1886071;28;7043;-63
2023/01/02 00:13:31;;;;;;;;;;;;;;;;;;1885827;28;7113;-61
2023/01/02 00:14:28;;;;;;;;;;;;;;;;;;1882442;28;7097;-63
2023/01/02 00:15:25;;;;;;;;;;;;;;;;;;1886343;28;7006;-62
2023/01/02 00:16:23;;;;;;;;;;;;;;;;;;1885096;28;7383;-63
2023/01/02 00:17:21;;;;;;;;;;;;;;;;;;1883600;28;7006;-63
2023/01/02 00:18:18;;;;;;;;;;;;;;;;;;1882445;28;7113;-64
2023/01/02 00:19:15;;;;;;;;;;;;;;;;;;1882310;28;7009;-64
2023/01/02 00:20:13;;;;;;;;;;;;;;;;;;1880887;28;7047;-63
2023/01/02 00:21:10;;;;;;;;;;;;;;;;;;1882528;28;7133;-62
2023/01/02 00:22:08;;;;;;;;;;;;;;;;;;1882897;28;7014;-64
2023/01/02 00:23:05;;;;;;;;;;;;;;;;;;1885959;28;7152;-63
2023/01/02 00:24:02;;;;;;;;;;;;;;;;;;1885520;28;7113;-64
2023/01/02 00:25:00;;;;;;;;;;;;;;;;;;1884123;28;7133;-62
2023/01/02 00:25:58;;;;;;;;;;;;;;;;;;1884425;28;7046;-62
2023/01/02 00:26:55;;;;;;;;;;;;;;;;;;1884078;28;8040;-63
2023/01/02 00:27:53;;;;;;;;;;;;;;;;;;1885178;28;7376;-63
2023/01/02 00:28:51;;;;;;;;;;;;;;;;;;1883707;28;7092;-64
2023/01/02 00:29:48;;;;;;;;;;;;;;;;;;1884850;28;7092;-62
2023/01/02 00:30:45;;;;;;;;;;;;;;;;;;1885007;28;7049;-63
2023/01/02 00:31:43;;;;;;;;;;;;;;;;;;1883732;28;8256;-62
2023/01/02 00:32:40;;;;;;;;;;;;;;;;;;1884368;28;7333;-63
2023/01/02 00:33:38;;;;;;;;;;;;;;;;;;1882963;28;8036;-62
2023/01/02 00:34:35;;;;;;;;;;;;;;;;;;1885167;28;8013;-64
2023/01/02 00:35:35;;;;;;;;;;;;;;;;;;1884688;28;7097;-64
2023/01/02 00:36:33;;;;;;;;;;;;;;;;;;1882652;28;7145;-63
2023/01/02 00:37:30;;;;;;;;;;;;;;;;;;1881824;28;8098;-62
2023/01/02 00:38:27;;;;;;;;;;;;;;;;;;1881028;28;7010;-63
2023/01/02 00:39:26;;;;;;;;;;;;;;;;;;1883016;28;7006;-64
2023/01/02 00:40:23;;;;;;;;;;;;;;;;;;1881909;28;7039;-65
2023/01/02 00:41:21;;;;;;;;;;;;;;;;;;1882248;28;7026;-62
2023/01/02 00:42:18;;;;;;;;;;;;;;;;;;1883367;28;7145;-62
2023/01/02 00:43:16;;;;;;;;;;;;;;;;;;1884524;28;7084;-64
2023/01/02 00:44:13;;;;;;;;;;;;;;;;;;1881963;28;7010;-63
2023/01/02 00:45:11;;;;;;;;;;;;;;;;;;1882082;28;7101;-63
2023/01/02 00:46:08;;;;;;;;;;;;;;;;;;1881830;28;7013;-63
2023/01/02 00:47:08;;;;;;;;;;;;;;;;;;1881889;28;7109;-63
2023/01/02 00:48:06;;;;;;;;;;;;;;;;;;1882180;28;7042;-63
2023/01/02 00:49:03;;;;;;;;;;;;;;;;;;1882026;28;8016;-63
2023/01/02 00:50:01;;;;;;;;;;;;;;;;;;1882109;28;8014;-64
2023/01/02 00:50:58;;;;;;;;;;;;;;;;;;1881443;28;7088;-62
2023/01/02 00:51:56;;;;;;;;;;;;;;;;;;1880891;28;7117;-64
2023/01/02 00:52:53;;;;;;;;;;;;;;;;;;1882079;28;7013;-62
2023/01/02 00:53:50;;;;;;;;;;;;;;;;;;1882045;28;8024;-63
2023/01/02 00:54:48;;;;;;;;;;;;;;;;;;1880655;28;8023;-63
2023/01/02 00:55:45;;;;;;;;;;;;;;;;;;1882890;28;7113;-63
2023/01/02 00:56:43;;;;;;;;;;;;;;;;;;1882265;28;7013;-64
2023/01/02 00:57:40;;;;;;;;;;;;;;;;;;1881833;28;7042;-64
2023/01/02 00:58:37;;;;;;;;;;;;;;;;;;1882039;28;7038;-64
2023/01/02 00:59:35;;;;;;;;;;;;;;;;;;1881153;28;7046;-63
2023/01/02 01:00:32;;;;;;;;;;;;;;;;;;1881396;28;7006;-64
2023/01/02 01:01:30;;;;;;;;;;;;;;;;;;1881413;28;7595;-63
2023/01/02 01:02:27;;;;;;;;;;;;;;;;;;1881793;28;8167;-63
2023/01/02 01:03:25;;;;;;;;;;;;;;;;;;1881812;28;7006;-63
2023/01/02 01:04:22;;;;;;;;;;;;;;;;;;1882022;28;7196;-63
2023/01/02 01:05:19;;;;;;;;;;;;;;;;;;1881652;28;7033;-63
2023/01/02 01:06:17;;;;;;;;;;;;;;;;;;1881346;28;7422;-63
2023/01/02 01:07:14;;;;;;;;;;;;;;;;;;1881928;28;7053;-63
2023/01/02 01:08:12;;;;;;;;;;;;;;;;;;1881725;28;7274;-63
2023/01/02 01:09:09;;;;;;;;;;;;;;;;;;1881667;28;7128;-64
2023/01/02 01:10:06;;;;;;;;;;;;;;;;;;1881283;28;7133;-63
2023/01/02 01:11:08;;;;;;;;;;;;;;;;;;1881846;28;7373;-63
2023/01/02 01:12:05;;;;;;;;;;;;;;;;;;1881525;28;8047;-62
2023/01/02 01:13:03;;;;;;;;;;;;;;;;;;1881575;28;7046;-63
2023/01/02 01:14:00;;;;;;;;;;;;;;;;;;1881605;28;8043;-62
2023/01/02 01:14:58;;;;;;;;;;;;;;;;;;1882712;28;7121;-63
2023/01/02 01:16:01;;;;;;;;;;;;;;;;;;1880917;28;7006;-62
2023/01/02 01:16:59;;;;;;;;;;;;;;;;;;1882413;28;7121;-62
2023/01/02 01:17:56;;;;;;;;;;;;;;;;;;1882408;28;7002;-64
2023/01/02 01:18:55;;;;;;;;;;;;;;;;;;1881026;28;7133;-64
2023/01/02 01:19:52;;;;;;;;;;;;;;;;;;1881317;28;7097;-62
2023/01/02 01:20:50;;;;;;;;;;;;;;;;;;1880578;28;7207;-63
2023/01/02 01:21:47;;;;;;;;;;;;;;;;;;1881956;28;8039;-62
2023/01/02 01:22:44;;;;;;;;;;;;;;;;;;1881830;28;7130;-63
2023/01/02 01:23:43;;;;;;;;;;;;;;;;;;1882625;28;7009;-63
2023/01/02 01:24:40;;;;;;;;;;;;;;;;;;1882119;28;7002;-64
2023/01/02 01:25:37;;;;;;;;;;;;;;;;;;1882042;28;8090;-63
2023/01/02 01:26:35;;;;;;;;;;;;;;;;;;1881661;28;7097;-62
2023/01/02 01:27:32;;;;;;;;;;;;;;;;;;1881738;28;7862;-64
2023/01/02 01:28:29;;;;;;;;;;;;;;;;;;1882028;28;7097;-64
2023/01/02 01:29:27;;;;;;;;;;;;;;;;;;1881460;28;7002;-62
2023/01/02 01:30:24;;;;;;;;;;;;;;;;;;1881590;28;7869;-62
2023/01/02 01:31:22;;;;;;;;;;;;;;;;;;1881657;28;7156;-63
2023/01/02 01:32:19;;;;;;;;;;;;;;;;;;1881711;28;8077;-62
2023/01/02 01:33:17;;;;;;;;;;;;;;;;;;1881683;28;8067;-62
2023/01/02 01:34:14;;;;;;;;;;;;;;;;;;1881417;28;7180;-63
2023/01/02 01:35:12;;;;;;;;;;;;;;;;;;1882131;28;7046;-63
2023/01/02 01:36:09;;;;;;;;;;;;;;;;;;1881561;28;7006;-64
2023/01/02 01:37:06;;;;;;;;;;;;;;;;;;1881452;28;7034;-65
2023/01/02 01:38:04;;;;;;;;;;;;;;;;;;1881976;28;7038;-64
2023/01/02 01:39:01;;;;;;;;;;;;;;;;;;1882168;28;7034;-65
2023/01/02 01:39:58;;;;;;;;;;;;;;;;;;1881968;28;7121;-64
2023/01/02 01:40:56;;;;;;;;;;;;;;;;;;1881931;28;8679;-64
2023/01/02 01:41:53;;;;;;;;;;;;;;;;;;1881011;28;8029;-66
2023/01/02 01:42:51;;;;;;;;;;;;;;;;;;1881051;28;7097;-64
2023/01/02 01:43:58;;;;;;;;;;;;;;;;;;1881318;28;8008;-64
2023/01/02 01:44:55;;;;;;;;;;;;;;;;;;1881816;28;7130;-65
2023/01/02 01:45:53;;;;;;;;;;;;;;;;;;1881644;28;7207;-64
2023/01/02 01:46:50;;;;;;;;;;;;;;;;;;1881467;28;7046;-65
2023/01/02 01:47:53;;;;;;;;;;;;;;;;;;1881510;28;7092;-63
2023/01/02 01:48:57;;;;;;;;;;;;;;;;;;1882182;28;7009;-65
2023/01/02 01:49:59;;;;;;;;;;;;;;;;;;1880078;28;7109;-63
2023/01/02 01:51:02;;;;;;;;;;;;;;;;;;1881381;28;7114;-64
2023/01/02 01:52:06;;;;;;;;;;;;;;;;;;1881309;28;7119;-64
2023/01/02 01:53:08;;;;;;;;;;;;;;;;;;1881450;28;7089;-65
2023/01/02 01:54:09;;;;;;;;;;;;;;;;;;1880644;28;7096;-64
2023/01/02 01:55:06;;;;;;;;;;;;;;;;;;1882030;28;7088;-64
2023/01/02 01:56:05;;;;;;;;;;;;;;;;;;1881636;28;8056;-65
2023/01/02 01:57:29;;;;;;;;;;;;;;;;;;1882080;28;7006;-64
2023/01/02 01:58:41;;;;;;;;;;;;;;;;;;1879959;28;7097;-65
2023/01/02 01:59:39;;;;;;;;;;;;;;;;;;1882285;28;7010;-65
2023/01/02 02:00:39;;;;;;;;;;;;;;;;;;1873937;28;7046;-64
2023/01/02 02:01:40;;;;;;;;;;;;;;;;;;1874500;28;7113;-64
2023/01/02 02:02:40;;;;;;;;;;;;;;;;;;1881597;28;7596;-64
2023/01/02 02:03:40;;;;;;;;;;;;;;;;;;1881365;28;7006;-64
2023/01/02 02:04:41;;;;;;;;;;;;;;;;;;1881677;28;7014;-65
2023/01/02 02:05:40;;;;;;;;;;;;;;;;;;1881909;28;7050;-65
2023/01/02 02:06:38;;;;;;;;;;;;;;;;;;1881547;28;7018;-64
2023/01/02 02:07:40;;;;;;;;;;;;;;;;;;1882169;28;7313;-65
2023/01/02 02:08:40;;;;;;;;;;;;;;;;;;1881466;28;7388;-65
2023/01/02 02:09:42;;;;;;;;;;;;;;;;;;1882707;28;7105;-63
2023/01/02 02:10:40;;;;;;;;;;;;;;;;;;1880444;28;7997;-63
2023/01/02 02:11:38;;;;;;;;;;;;;;;;;;1882428;28;7109;-65
2023/01/02 02:12:36;;;;;;;;;;;;;;;;;;1880360;28;8460;-64
2023/01/02 02:13:33;;;;;;;;;;;;;;;;;;1881479;28;8031;-64
2023/01/02 02:14:31;;;;;;;;;;;;;;;;;;1881259;28;7013;-64
2023/01/02 02:15:48;;;;;;;;;;;;;;;;;;1881753;28;7006;-64
2023/01/02 02:16:58;;;;;;;;;;;;;;;;;;1873000;28;7128;-64
2023/01/02 02:18:01;;;;;;;;;;;;;;;;;;1881437;28;7005;-65
2023/01/02 02:19:17;;;;;;;;;;;;;;;;;;1880586;28;7833;-64
2023/01/02 02:20:33;;;;;;;;;;;;;;;;;;1882041;28;7030;-64
2023/01/02 02:21:49;;;;;;;;;;;;;;;;;;1881183;28;8029;-64
2023/01/02 02:23:05;;;;;;;;;;;;;;;;;;1881079;28;8349;-64
2023/01/02 02:24:21;;;;;;;;;;;;;;;;;;1881307;28;7139;-64
2023/01/02 02:25:37;;;;;;;;;;;;;;;;;;1881054;28;7029;-64
2023/01/02 02:26:53;;;;;;;;;;;;;;;;;;1881265;28;8056;-65
2023/01/02 02:27:56;;;;;;;;;;;;;;;;;;1880920;28;7014;-64
2023/01/02 02:29:12;;;;;;;;;;;;;;;;;;1881892;28;8043;-64
2023/01/02 02:30:13;;;;;;;;;;;;;;;;;;1881733;28;7093;-64
2023/01/02 02:31:33;;;;;;;;;;;;;;;;;;1881320;28;8352;-64
2023/01/02 02:32:47;;;;;;;;;;;;;;;;;;1880747;28;7069;-64
2023/01/02 02:34:11;;;;;;;;;;;;;;;;;;1881390;28;7117;-64
2023/01/02 02:35:25;;;;;;;;;;;;;;;;;;1858524;28;7135;-65
2023/01/02 02:36:29;;;;;;;;;;;;;;;;;;1881319;28;8090;-65
2023/01/02 02:37:26;;;;;;;;;;;;;;;;;;1880522;28;7031;-64
2023/01/02 02:38:44;;;;;;;;;;;;;;;;;;1881533;28;7010;-64
2023/01/02 02:40:19;;;;;;;;;;;;;;;;;;1881278;28;7025;-64
2023/01/02 02:41:32;;;;;;;;;;;;;;;;;;1860216;29;8143;-65
2023/01/02 02:42:44;;;;;;;;;;;;;;;;;;1861468;29;7109;-65
2023/01/02 02:43:51;;;;;;;;;;;;;;;;;;1860693;29;7101;-64
2023/01/02 02:44:48;;;;;;;;;;;;;;;;;;1858963;29;7109;-64
2023/01/02 02:46:00;;;;;;;;;;;;;;;;;;1859114;29;7097;-64
2023/01/02 02:47:01;;;;;;;;;;;;;;;;;;1870016;28;7010;-64
2023/01/02 02:48:21;;;;;;;;;;;;;;;;;;1880861;28;7106;-64
2023/01/02 02:49:24;;;;;;;;;;;;;;;;;;1880642;28;7113;-63
2023/01/02 02:50:29;;;;;;;;;;;;;;;;;;1881495;28;8052;-64
2023/01/02 02:51:34;;;;;;;;;;;;;;;;;;1881463;28;8093;-64
2023/01/02 02:52:35;;;;;;;;;;;;;;;;;;1880371;28;7002;-64
2023/01/02 02:53:48;;;;;;;;;;;;;;;;;;1880727;28;7017;-65
2023/01/02 02:55:04;;;;;;;;;;;;;;;;;;1881295;28;8036;-63
2023/01/02 02:56:05;;;;;;;;;;;;;;;;;;1880304;28;7130;-63
2023/01/02 02:57:06;;;;;;;;;;;;;;;;;;1880237;28;8006;-64
2023/01/02 02:58:04;;;;;;;;;;;;;;;;;;1880122;28;7014;-65
2023/01/02 02:59:01;;;;;;;;;;;;;;;;;;1880726;28;7381;-63
2023/01/02 02:59:59;;;;;;;;;;;;;;;;;;1880746;28;7096;-63
2023/01/02 03:01:10;;;;;;;;;;;;;;;;;;1880731;28;7006;-65
2023/01/02 03:02:13;;;;;;;;;;;;;;;;;;1881142;28;7009;-64
2023/01/02 03:03:18;;;;;;;;;;;;;;;;;;1880233;28;7097;-64
2023/01/02 03:04:20;;;;;;;;;;;;;;;;;;1880745;28;7160;-64
2023/01/02 03:05:26;;;;;;;;;;;;;;;;;;1881499;28;7013;-64
2023/01/02 03:06:44;;;;;;;;;;;;;;;;;;1881227;28;7993;-65
2023/01/02 03:07:42;;;;;;;;;;;;;;;;;;1868080;28;7018;-64
2023/01/02 03:08:44;;;;;;;;;;;;;;;;;;1881276;28;7113;-64
2023/01/02 03:09:45;;;;;;;;;;;;;;;;;;1881745;28;7116;-64
2023/01/02 03:10:51;;;;;;;;;;;;;;;;;;1881427;28;8004;-64
2023/01/02 03:12:06;;;;;;;;;;;;;;;;;;1881923;28;7165;-63
2023/01/02 03:13:12;;;;;;;;;;;;;;;;;;1882319;28;8339;-64
2023/01/02 03:14:20;;;;;;;;;;;;;;;;;;1883058;28;8060;-64
2023/01/02 03:15:17;;;;;;;;;;;;;;;;;;1881358;28;8007;-64
2023/01/02 03:16:20;;;;;;;;;;;;;;;;;;1881090;28;7046;-64
2023/01/02 03:17:38;;;;;;;;;;;;;;;;;;1879847;28;7151;-65
2023/01/02 03:18:44;;;;;;;;;;;;;;;;;;1881613;28;8008;-63
2023/01/02 03:19:45;;;;;;;;;;;;;;;;;;1881001;28;7396;-64
2023/01/02 03:20:56;;;;;;;;;;;;;;;;;;1880574;28;7097;-64
2023/01/02 03:21:54;;;;;;;;;;;;;;;;;;1880889;28;7080;-63
2023/01/02 03:22:56;;;;;;;;;;;;;;;;;;1882577;28;7082;-63
2023/01/02 03:23:57;;;;;;;;;;;;;;;;;;1879755;28;7042;-64
2023/01/02 03:24:57;;;;;;;;;;;;;;;;;;1880445;28;7030;-65
2023/01/02 03:25:57;;;;;;;;;;;;;;;;;;1880096;28;7112;-65
2023/01/02 03:26:58;;;;;;;;;;;;;;;;;;1881095;28;7029;-64
2023/01/02 03:27:58;;;;;;;;;;;;;;;;;;1880978;28;7010;-64
2023/01/02 03:29:01;;;;;;;;;;;;;;;;;;1879628;28;7151;-65
2023/01/02 03:30:04;;;;;;;;;;;;;;;;;;1881908;28;8010;-65
2023/01/02 03:31:03;;;;;;;;;;;;;;;;;;1882210;28;7046;-65
2023/01/02 03:32:05;;;;;;;;;;;;;;;;;;1881659;28;7097;-65
2023/01/02 03:33:06;;;;;;;;;;;;;;;;;;1880968;28;7089;-65
2023/01/02 03:34:08;;;;;;;;;;;;;;;;;;1884140;28;7025;-64
2023/01/02 03:35:09;;;;;;;;;;;;;;;;;;1876411;28;7096;-64
2023/01/02 03:36:10;;;;;;;;;;;;;;;;;;1876714;28;7018;-64
2023/01/02 03:37:11;;;;;;;;;;;;;;;;;;1882807;28;7109;-64
2023/01/02 03:38:13;;;;;;;;;;;;;;;;;;1884512;28;7192;-64
2023/01/02 03:39:15;;;;;;;;;;;;;;;;;;1881286;28;7124;-65
2023/01/02 03:40:17;;;;;;;;;;;;;;;;;;1883178;28;7113;-64
2023/01/02 03:41:19;;;;;;;;;;;;;;;;;;1882639;28;8060;-64
2023/01/02 03:42:24;;;;;;;;;;;;;;;;;;1881984;28;7006;-64
2023/01/02 03:43:29;;;;;;;;;;;;;;;;;;1884475;28;8026;-64
2023/01/02 03:44:34;;;;;;;;;;;;;;;;;;1884269;28;7041;-64
2023/01/02 03:45:35;;;;;;;;;;;;;;;;;;1883363;28;7006;-63
2023/01/02 03:46:45;;;;;;;;;;;;;;;;;;1882143;28;7377;-64
2023/01/02 03:47:52;;;;;;;;;;;;;;;;;;1884155;28;7092;-63
2023/01/02 03:48:56;;;;;;;;;;;;;;;;;;1886163;28;7038;-65
2023/01/02 03:49:57;;;;;;;;;;;;;;;;;;1884617;28;7014;-64
2023/01/02 03:50:58;;;;;;;;;;;;;;;;;;1885395;28;8088;-65
2023/01/02 03:51:55;;;;;;;;;;;;;;;;;;1884003;28;7009;-64
2023/01/02 03:52:53;;;;;;;;;;;;;;;;;;1884357;28;7038;-64
2023/01/02 03:53:51;;;;;;;;;;;;;;;;;;1883098;28;8065;-64
2023/01/02 03:54:50;;;;;;;;;;;;;;;;;;1885556;28;7138;-64
2023/01/02 03:55:59;;;;;;;;;;;;;;;;;;1883448;28;7130;-64
2023/01/02 03:57:02;;;;;;;;;;;;;;;;;;1884258;28;7153;-63
2023/01/02 03:58:08;;;;;;;;;;;;;;;;;;1884255;28;7009;-64
2023/01/02 03:59:05;;;;;;;;;;;;;;;;;;1884087;28;7092;-64
2023/01/02 04:00:08;;;;;;;;;;;;;;;;;;1883698;28;7009;-65
2023/01/02 04:01:14;;;;;;;;;;;;;;;;;;1883566;28;7006;-65
2023/01/02 04:02:27;;;;;;;;;;;;;;;;;;1883462;28;7018;-64
2023/01/02 04:03:36;;;;;;;;;;;;;;;;;;1884038;28;7005;-64
2023/01/02 04:04:43;;;;;;;;;;;;;;;;;;1884570;28;7017;-63
2023/01/02 04:05:57;;;;;;;;;;;;;;;;;;1883933;28;7034;-64
2023/01/02 04:07:00;;;;;;;;;;;;;;;;;;1883213;28;7013;-64
2023/01/02 04:08:02;;;;;;;;;;;;;;;;;;1882592;28;7968;-64
2023/01/02 04:09:26;;;;;;;;;;;;;;;;;;1883742;28;7121;-65
2023/01/02 04:10:25;;;;;;;;;;;;;;;;;;1881187;28;7145;-66
2023/01/02 04:11:26;;;;;;;;;;;;;;;;;;1885038;28;7054;-64
2023/01/02 04:12:25;;;;;;;;;;;;;;;;;;1884604;28;7025;-63
2023/01/02 04:13:28;;;;;;;;;;;;;;;;;;1883460;28;7005;-65
2023/01/02 04:14:48;;;;;;;;;;;;;;;;;;1882476;28;7010;-63
2023/01/02 04:15:48;;;;;;;;;;;;;;;;;;1882798;28;8019;-63
2023/01/02 04:16:48;;;;;;;;;;;;;;;;;;1885369;28;8114;-63
2023/01/02 04:17:55;;;;;;;;;;;;;;;;;;1882807;28;8038;-65
2023/01/02 04:18:57;;;;;;;;;;;;;;;;;;1883306;28;7006;-64
2023/01/02 04:19:58;;;;;;;;;;;;;;;;;;1882890;28;7014;-64
2023/01/02 04:21:01;;;;;;;;;;;;;;;;;;1883527;28;8007;-65
2023/01/02 04:22:04;;;;;;;;;;;;;;;;;;1883812;28;7010;-64
2023/01/02 04:23:07;;;;;;;;;;;;;;;;;;1883719;28;7404;-65
2023/01/02 04:24:12;;;;;;;;;;;;;;;;;;1884228;28;7010;-64
2023/01/02 04:25:14;;;;;;;;;;;;;;;;;;1881879;28;8023;-64
2023/01/02 04:26:18;;;;;;;;;;;;;;;;;;1881829;28;7997;-64
2023/01/02 04:27:20;;;;;;;;;;;;;;;;;;1882560;28;7006;-63
2023/01/02 04:28:17;;;;;;;;;;;;;;;;;;1881155;28;7105;-64
2023/01/02 04:29:15;;;;;;;;;;;;;;;;;;1883077;28;7141;-63
2023/01/02 04:30:13;;;;;;;;;;;;;;;;;;1883079;28;7073;-64
2023/01/02 04:31:19;;;;;;;;;;;;;;;;;;1881406;28;8041;-64
2023/01/02 04:32:22;;;;;;;;;;;;;;;;;;1884347;28;7169;-63
2023/01/02 04:33:23;;;;;;;;;;;;;;;;;;1885989;28;7105;-64
2023/01/02 04:34:23;;;;;;;;;;;;;;;;;;1882201;28;7013;-65
2023/01/02 04:35:23;;;;;;;;;;;;;;;;;;1883029;28;7308;-63
2023/01/02 04:36:21;;;;;;;;;;;;;;;;;;1882354;28;8103;-65
2023/01/02 04:37:32;;;;;;;;;;;;;;;;;;1881262;28;8046;-64
2023/01/02 04:38:29;;;;;;;;;;;;;;;;;;1883690;28;7006;-65
2023/01/02 04:39:27;;;;;;;;;;;;;;;;;;1884439;28;7097;-65
2023/01/02 04:40:27;;;;;;;;;;;;;;;;;;1883911;28;7009;-64
2023/01/02 04:41:28;;;;;;;;;;;;;;;;;;1881370;28;7154;-64
2023/01/02 04:42:25;;;;;;;;;;;;;;;;;;1881827;28;7042;-64
2023/01/02 04:43:23;;;;;;;;;;;;;;;;;;1882769;28;7116;-65
2023/01/02 04:44:20;;;;;;;;;;;;;;;;;;1877937;28;7006;-64
2023/01/02 04:45:18;;;;;;;;;;;;;;;;;;1875018;28;7092;-63
2023/01/02 04:46:15;;;;;;;;;;;;;;;;;;1881834;28;8279;-63
2023/01/02 04:47:13;;;;;;;;;;;;;;;;;;1882545;28;8470;-64
2023/01/02 04:48:17;;;;;;;;;;;;;;;;;;1876899;28;7006;-64
2023/01/02 04:49:15;;;;;;;;;;;;;;;;;;1875710;28;7025;-64
2023/01/02 04:50:13;;;;;;;;;;;;;;;;;;1883755;28;8139;-65
2023/01/02 04:51:10;;;;;;;;;;;;;;;;;;1882526;28;7181;-65
2023/01/02 04:52:07;;;;;;;;;;;;;;;;;;1883314;28;7128;-63
2023/01/02 04:53:05;;;;;;;;;;;;;;;;;;1882946;28;8052;-64
2023/01/02 04:54:02;;;;;;;;;;;;;;;;;;1883164;28;7193;-63
2023/01/02 04:55:00;;;;;;;;;;;;;;;;;;1882942;28;7013;-65
2023/01/02 04:55:57;;;;;;;;;;;;;;;;;;1883594;28;7114;-63
2023/01/02 04:56:54;;;;;;;;;;;;;;;;;;1881109;28;7088;-65
2023/01/02 04:57:52;;;;;;;;;;;;;;;;;;1883913;28;7156;-65
2023/01/02 04:58:49;;;;;;;;;;;;;;;;;;1880742;28;8174;-64
2023/01/02 04:59:47;;;;;;;;;;;;;;;;;;1882702;28;7376;-64
2023/01/02 05:00:44;;;;;;;;;;;;;;;;;;1881228;28;7022;-65
2023/01/02 05:01:41;;;;;;;;;;;;;;;;;;1882783;28;7305;-65
2023/01/02 05:02:39;;;;;;;;;;;;;;;;;;1881399;28;7340;-64
2023/01/02 05:03:38;;;;;;;;;;;;;;;;;;1881414;28;7321;-63
2023/01/02 05:04:35;;;;;;;;;;;;;;;;;;1882921;28;7454;-64
2023/01/02 05:05:32;;;;;;;;;;;;;;;;;;1882523;28;7097;-64
2023/01/02 05:06:31;;;;;;;;;;;;;;;;;;1883030;28;8107;-64
2023/01/02 05:07:28;;;;;;;;;;;;;;;;;;1881806;28;7160;-63
2023/01/02 05:08:27;;;;;;;;;;;;;;;;;;1883759;28;7010;-64
2023/01/02 05:09:24;;;;;;;;;;;;;;;;;;1882964;28;8010;-64
2023/01/02 05:10:21;;;;;;;;;;;;;;;;;;1882522;28;7010;-63
2023/01/02 05:11:19;;;;;;;;;;;;;;;;;;1880708;28;7046;-63
2023/01/02 05:12:17;;;;;;;;;;;;;;;;;;1882600;28;7013;-65
2023/01/02 05:13:14;;;;;;;;;;;;;;;;;;1884957;28;7029;-65
2023/01/02 05:14:11;;;;;;;;;;;;;;;;;;1884055;28;7104;-65
2023/01/02 05:15:09;;;;;;;;;;;;;;;;;;1881537;28;7531;-65
2023/01/02 05:16:07;;;;;;;;;;;;;;;;;;1884618;28;7141;-64
2023/01/02 05:17:05;;;;;;;;;;;;;;;;;;1884044;28;7117;-63
2023/01/02 05:18:02;;;;;;;;;;;;;;;;;;1884183;28;7010;-63
2023/01/02 05:18:59;;;;;;;;;;;;;;;;;;1885550;28;7025;-64
2023/01/02 05:19:57;;;;;;;;;;;;;;;;;;1882035;28;7059;-63
2023/01/02 05:21:00;;;;;;;;;;;;;;;;;;1884927;28;7014;-65
2023/01/02 05:24:05;;;;;;;;;;;;;;;;;;1872046;28;7097;-64
2023/01/02 05:24:55;;;;;;;;;;;;;;;;;;1864514;28;7014;-62
2023/01/02 05:25:52;;;;;;;;;;;;;;;;;;1873366;28;7152;-64
2023/01/02 05:26:49;;;;;;;;;;;;;;;;;;1885155;28;7113;-64
2023/01/02 05:27:50;;;;;;;;;;;;;;;;;;1881778;28;7054;-65
2023/01/02 05:28:48;;;;;;;;;;;;;;;;;;1883112;28;7153;-64
2023/01/02 05:29:45;;;;;;;;;;;;;;;;;;1881790;28;7010;-65
2023/01/02 05:30:42;;;;;;;;;;;;;;;;;;1882148;28;7096;-63
2023/01/02 05:31:40;;;;;;;;;;;;;;;;;;1883339;28;7128;-64
2023/01/02 05:32:37;;;;;;;;;;;;;;;;;;1883209;28;7132;-64
2023/01/02 05:33:35;;;;;;;;;;;;;;;;;;1882922;28;7042;-64
2023/01/02 05:34:32;;;;;;;;;;;;;;;;;;1882053;28;7073;-63
2023/01/02 05:35:30;;;;;;;;;;;;;;;;;;1885533;28;7013;-63
2023/01/02 05:36:29;;;;;;;;;;;;;;;;;;1881618;28;7126;-64
2023/01/02 05:37:28;;;;;;;;;;;;;;;;;;1884014;28;7133;-63
2023/01/02 05:38:25;;;;;;;;;;;;;;;;;;1886737;28;7009;-65
2023/01/02 05:39:22;;;;;;;;;;;;;;;;;;1885758;28;8063;-65
2023/01/02 05:40:20;;;;;;;;;;;;;;;;;;1882029;28;7059;-64
2023/01/02 05:41:18;;;;;;;;;;;;;;;;;;1882060;28;7217;-64
2023/01/02 05:42:16;;;;;;;;;;;;;;;;;;1881878;28;7088;-65
2023/01/02 05:43:13;;;;;;;;;;;;;;;;;;1881688;28;8091;-63
2023/01/02 05:44:11;;;;;;;;;;;;;;;;;;1882171;28;7043;-65
2023/01/02 05:45:08;;;;;;;;;;;;;;;;;;1881737;28;7035;-63
2023/01/02 05:46:07;;;;;;;;;;;;;;;;;;1882287;28;8064;-63
2023/01/02 05:47:04;;;;;;;;;;;;;;;;;;1881076;28;7005;-64
2023/01/02 05:48:02;;;;;;;;;;;;;;;;;;1879705;28;7113;-65
2023/01/02 05:49:00;;;;;;;;;;;;;;;;;;1882794;28;7108;-64
2023/01/02 05:49:57;;;;;;;;;;;;;;;;;;1880767;28;8075;-62
2023/01/02 05:50:54;;;;;;;;;;;;;;;;;;1881886;28;7010;-65
2023/01/02 05:51:52;;;;;;;;;;;;;;;;;;1882295;28;7010;-64
2023/01/02 05:52:49;;;;;;;;;;;;;;;;;;1880345;28;7009;-63
2023/01/02 05:53:47;;;;;;;;;;;;;;;;;;1876743;28;7070;-64
2023/01/02 05:54:44;;;;;;;;;;;;;;;;;;1881713;28;7026;-64
2023/01/02 05:55:41;;;;;;;;;;;;;;;;;;1881890;28;7010;-65
2023/01/02 05:56:39;;;;;;;;;;;;;;;;;;1881489;28;7316;-66
2023/01/02 05:57:36;;;;;;;;;;;;;;;;;;1882274;28;8052;-63
2023/01/02 05:58:35;;;;;;;;;;;;;;;;;;1881579;28;7096;-64
2023/01/02 05:59:32;;;;;;;;;;;;;;;;;;1881096;28;7135;-63
2023/01/02 06:00:32;;;;;;;;;;;;;;;;;;1883025;28;7324;-64
2023/01/02 06:01:30;;;;;;;;;;;;;;;;;;1881719;28;7144;-64
2023/01/02 06:02:27;;;;;;;;;;;;;;;;;;1881906;28;8040;-64
2023/01/02 06:03:25;;;;;;;;;;;;;;;;;;1880097;28;7010;-63
2023/01/02 06:04:22;;;;;;;;;;;;;;;;;;1881308;28;8033;-63
2023/01/02 06:05:19;;;;;;;;;;;;;;;;;;1881447;28;7093;-65
2023/01/02 06:06:19;;;;;;;;;;;;;;;;;;1881553;28;7097;-64
2023/01/02 06:07:17;;;;;;;;;;;;;;;;;;1882204;28;9646;-64
2023/01/02 06:08:14;;;;;;;;;;;;;;;;;;1881106;28;7006;-64
2023/01/02 06:09:13;;;;;;;;;;;;;;;;;;1881611;28;8015;-65
2023/01/02 06:10:10;;;;;;;;;;;;;;;;;;1881260;28;7014;-63
2023/01/02 06:11:07;;;;;;;;;;;;;;;;;;1881490;28;7364;-64
2023/01/02 06:12:05;;;;;;;;;;;;;;;;;;1881350;28;8009;-64
2023/01/02 06:13:02;;;;;;;;;;;;;;;;;;1881236;28;7038;-64
2023/01/02 06:14:00;;;;;;;;;;;;;;;;;;1881650;28;7113;-65
2023/01/02 06:14:57;;;;;;;;;;;;;;;;;;1881891;28;7144;-64
2023/01/02 06:15:55;;;;;;;;;;;;;;;;;;1881821;28;7005;-63
2023/01/02 06:16:52;;;;;;;;;;;;;;;;;;1881224;28;7983;-64
2023/01/02 06:17:50;;;;;;;;;;;;;;;;;;1881379;28;7121;-64
2023/01/02 06:18:47;;;;;;;;;;;;;;;;;;1881261;28;7009;-65
2023/01/02 06:19:44;;;;;;;;;;;;;;;;;;1881519;28;7117;-65
2023/01/02 06:20:50;;;;;;;;;;;;;;;;;;1881612;28;8100;-65
2023/01/02 06:21:47;;;;;;;;;;;;;;;;;;1880770;28;7014;-63
2023/01/02 06:22:44;;;;;;;;;;;;;;;;;;1881079;28;7010;-64
2023/01/02 06:23:42;;;;;;;;;;;;;;;;;;1881603;28;7034;-64
2023/01/02 06:24:39;;;;;;;;;;;;;;;;;;1881303;28;7010;-64
2023/01/02 06:25:37;;;;;;;;;;;;;;;;;;1881375;28;7010;-64
2023/01/02 06:26:34;;;;;;;;;;;;;;;;;;1880850;28;7431;-64
2023/01/02 06:27:32;;;;;;;;;;;;;;;;;;1881778;28;7108;-64
2023/01/02 06:28:29;;;;;;;;;;;;;;;;;;1881836;28;7042;-64
2023/01/02 06:29:26;;;;;;;;;;;;;;;;;;1877532;28;7043;-63
2023/01/02 06:30:24;;;;;;;;;;;;;;;;;;1874763;28;7014;-64
2023/01/02 06:31:23;;;;;;;;;;;;;;;;;;1880559;28;7006;-65
2023/01/02 06:32:21;;;;;;;;;;;;;;;;;;1881310;28;7116;-64
2023/01/02 06:33:18;;;;;;;;;;;;;;;;;;1880982;28;8024;-65
2023/01/02 06:34:16;;;;;;;;;;;;;;;;;;1880536;28;8043;-64
2023/01/02 06:35:14;;;;;;;;;;;;;;;;;;1882118;28;7344;-64
2023/01/02 06:36:16;;;;;;;;;;;;;;;;;;1881540;28;7006;-64
2023/01/02 06:37:13;;;;;;;;;;;;;;;;;;1881453;28;7730;-64
2023/01/02 06:38:10;;;;;;;;;;;;;;;;;;1881287;28;7121;-64
2023/01/02 06:39:08;;;;;;;;;;;;;;;;;;1881820;28;7035;-65
2023/01/02 06:40:05;;;;;;;;;;;;;;;;;;1881473;28;7129;-65
2023/01/02 06:41:03;;;;;;;;;;;;;;;;;;1881644;28;7128;-65
2023/01/02 06:42:00;;;;;;;;;;;;;;;;;;1881435;28;7006;-65
2023/01/02 06:42:58;;;;;;;;;;;;;;;;;;1881691;28;7124;-65
2023/01/02 06:43:56;;;;;;;;;;;;;;;;;;1880732;28;7375;-65
2023/01/02 06:44:54;;;;;;;;;;;;;;;;;;1881017;28;7006;-64
2023/01/02 06:45:51;;;;;;;;;;;;;;;;;;1881872;28;7006;-63
2023/01/02 06:46:49;;;;;;;;;;;;;;;;;;1880912;28;7329;-64
2023/01/02 06:47:46;;;;;;;;;;;;;;;;;;1880652;28;7129;-64
2023/01/02 06:48:44;;;;;;;;;;;;;;;;;;1881342;28;7121;-64
2023/01/02 06:49:41;;;;;;;;;;;;;;;;;;1881909;28;7042;-65
2023/01/02 06:50:39;;;;;;;;;;;;;;;;;;1881225;28;7324;-65
2023/01/02 06:51:36;;;;;;;;;;;;;;;;;;1881717;28;7096;-64
2023/01/02 06:52:33;;;;;;;;;;;;;;;;;;1881690;28;7017;-65
2023/01/02 06:53:34;;;;;;;;;;;;;;;;;;1881484;28;7148;-64
2023/01/02 06:54:32;;;;;;;;;;;;;;;;;;1881379;28;7132;-64
2023/01/02 06:55:29;;;;;;;;;;;;;;;;;;1881427;28;7613;-64
2023/01/02 06:56:27;;;;;;;;;;;;;;;;;;1882128;28;7134;-64
2023/01/02 06:57:24;;;;;;;;;;;;;;;;;;1880956;28;7010;-65
2023/01/02 06:58:23;;;;;;;;;;;;;;;;;;1881387;28;7097;-65
2023/01/02 06:59:20;;;;;;;;;;;;;;;;;;1881696;28;7113;-64
2023/01/02 07:00:17;;;;;;;;;;;;;;;;;;1881063;28;7046;-64
2023/01/02 07:01:17;;;;;;;;;;;;;;;;;;1881878;28;7010;-64